createdAt,value
2023-01-17T00:02:33.666Z,79.61
2023-01-17T00:07:53.858Z,79.70
2023-01-17T00:13:04.946Z,79.71
2023-01-17T00:18:06.686Z,80.22
2023-01-17T00:23:41.292Z,80.12
2023-01-17T00:28:43.983Z,80.11
2023-01-17T00:33:45.751Z,80.31
2023-01-17T00:38:48.072Z,80.31
2023-01-17T00:44:09.067Z,80.08
2023-01-17T00:49:29.769Z,80.33
2023-01-17T00:54:50.144Z,80.32
2023-01-17T01:00:10.599Z,80.21
2023-01-17T01:05:32.011Z,80.31
2023-01-17T01:10:52.156Z,80.11
2023-01-17T01:16:13.150Z,80.44
2023-01-17T01:21:33.448Z,80.58
2023-01-17T01:26:53.792Z,80.36
2023-01-17T01:32:14.251Z,80.13
2023-01-17T01:37:15.977Z,80.01
2023-01-17T01:42:17.700Z,79.72
2023-01-17T01:47:28.365Z,79.46
2023-01-17T01:52:33.282Z,79.07
2023-01-17T01:57:40.663Z,78.59
2023-01-17T02:02:44.671Z,78.54
2023-01-17T02:08:02.018Z,78.75
2023-01-17T02:13:04.503Z,78.29
2023-01-17T02:18:24.002Z,78.46
2023-01-17T02:24:02.890Z,78.12
2023-01-17T02:29:27.443Z,78.57
2023-01-17T02:34:46.140Z,77.99
2023-01-17T02:40:30.438Z,77.89
2023-01-17T02:45:32.389Z,77.92
2023-01-17T02:50:55.095Z,78.19
2023-01-17T02:56:38.883Z,78.19
2023-01-17T03:02:10.434Z,78.21
2023-01-17T03:07:17.518Z,78.19
2023-01-17T03:12:21.047Z,78.42
2023-01-17T03:17:26.470Z,78.49
2023-01-17T03:22:29.398Z,78.58
2023-01-17T03:27:31.197Z,78.60
2023-01-17T03:32:32.842Z,78.79
2023-01-17T03:37:35.269Z,79.06
2023-01-17T03:42:36.962Z,79.17
2023-01-17T03:47:38.808Z,78.94
2023-01-17T03:52:40.646Z,79.03
2023-01-17T03:57:42.487Z,79.22
2023-01-17T04:02:44.257Z,78.92
2023-01-17T04:07:46.182Z,79.31
2023-01-17T04:12:47.863Z,79.03
2023-01-17T04:17:49.763Z,78.94
2023-01-17T04:22:51.507Z,79.34
2023-01-17T04:27:54.008Z,79.15
2023-01-17T04:32:55.758Z,79.45
2023-01-17T04:37:57.535Z,79.63
2023-01-17T04:42:59.551Z,79.62
2023-01-17T04:48:05.980Z,80.00
2023-01-17T04:53:07.781Z,79.99
2023-01-17T04:58:09.466Z,80.15
2023-01-17T05:03:11.099Z,80.19
2023-01-17T05:08:12.823Z,80.30
2023-01-17T05:13:15.351Z,80.31
2023-01-17T05:18:18.561Z,80.71
2023-01-17T05:23:20.298Z,80.46
2023-01-17T05:28:21.982Z,80.43
2023-01-17T05:33:23.614Z,80.72
2023-01-17T05:38:25.355Z,80.57
2023-01-17T05:43:28.298Z,80.47
2023-01-17T05:48:30.028Z,80.47
2023-01-17T05:53:31.752Z,80.25
2023-01-17T05:58:33.364Z,80.70
2023-01-17T06:03:35.880Z,80.71
2023-01-17T06:08:37.796Z,80.39
2023-01-17T06:13:39.652Z,80.64
2023-01-17T06:18:42.384Z,80.45
2023-01-17T06:23:44.080Z,80.45
2023-01-17T06:28:47.994Z,80.23
2023-01-17T06:33:49.722Z,80.29
2023-01-17T06:38:51.770Z,80.27
2023-01-17T06:43:54.706Z,80.38
2023-01-17T06:48:56.371Z,80.03
2023-01-17T06:53:58.253Z,79.87
2023-01-17T06:58:59.887Z,79.58
2023-01-17T07:04:03.420Z,79.48
2023-01-17T07:09:05.366Z,79.55
2023-01-17T07:14:12.483Z,79.59
2023-01-17T07:19:14.361Z,79.33
2023-01-17T07:24:16.135Z,79.12
2023-01-17T07:29:18.562Z,79.27
2023-01-17T07:34:20.917Z,78.74
2023-01-17T07:39:22.661Z,78.25
2023-01-17T07:44:24.302Z,78.05
2023-01-17T07:49:26.109Z,77.39
2023-01-17T07:54:27.821Z,77.54
2023-01-17T07:59:30.186Z,77.17
2023-01-17T08:04:35.169Z,76.75
2023-01-17T08:09:36.999Z,76.33
2023-01-17T08:14:38.646Z,76.06
2023-01-17T08:19:40.491Z,75.77
2023-01-17T08:24:42.222Z,75.47
2023-01-17T08:29:47.195Z,75.38
2023-01-17T08:34:50.276Z,75.33
2023-01-17T08:39:51.949Z,75.36
2023-01-17T08:44:53.670Z,74.75
2023-01-17T08:49:55.357Z,74.77
2023-01-17T08:54:57.496Z,74.87
2023-01-17T08:59:59.373Z,74.52
2023-01-17T09:05:01.035Z,74.40
2023-01-17T09:10:02.947Z,74.13
2023-01-17T09:15:05.259Z,74.07
2023-01-17T09:20:08.686Z,73.82
2023-01-17T09:25:10.561Z,73.49
2023-01-17T09:30:14.385Z,72.64
2023-01-17T09:35:18.328Z,72.06
2023-01-17T09:40:24.643Z,71.87
2023-01-17T09:45:30.055Z,71.56
2023-01-17T09:50:38.194Z,70.38
2023-01-17T09:56:02.647Z,69.62
2023-01-17T10:01:14.628Z,69.13
2023-01-17T10:06:35.413Z,68.88
2023-01-17T10:11:45.890Z,67.20
2023-01-17T10:17:04.715Z,65.88
2023-01-17T10:22:38.033Z,65.43
2023-01-17T10:27:55.278Z,65.23
2023-01-17T10:32:59.838Z,65.08
2023-01-17T10:38:06.776Z,64.53
2023-01-17T10:43:22.160Z,63.69
2023-01-17T10:48:34.272Z,63.98
2023-01-17T10:53:56.871Z,63.66
2023-01-17T10:59:26.249Z,62.92
2023-01-17T11:04:40.906Z,62.39
2023-01-17T11:09:44.991Z,61.49
2023-01-17T11:14:59.812Z,61.09
2023-01-17T11:20:27.970Z,61.15
2023-01-17T11:25:33.897Z,60.99
2023-01-17T11:30:36.204Z,61.43
2023-01-17T11:35:44.891Z,61.57
2023-01-17T11:40:48.995Z,61.96
2023-01-17T11:46:02.749Z,61.42
2023-01-17T11:51:18.076Z,60.46
2023-01-17T11:56:31.059Z,59.94
2023-01-17T12:01:57.990Z,59.78
2023-01-17T12:07:28.722Z,58.93
2023-01-17T12:13:08.154Z,59.10
2023-01-17T12:18:28.733Z,58.89
2023-01-17T12:23:43.442Z,59.35
2023-01-17T12:28:55.926Z,60.12
2023-01-17T12:34:07.980Z,60.38
2023-01-17T12:39:14.143Z,60.64
2023-01-17T12:44:20.052Z,60.52
2023-01-17T12:49:51.488Z,60.55
2023-01-17T12:55:05.840Z,60.58
2023-01-17T13:00:19.908Z,60.55
2023-01-17T13:05:32.276Z,59.23
2023-01-17T13:10:48.012Z,59.10
2023-01-17T13:15:54.340Z,59.28
2023-01-17T13:21:30.138Z,59.95
2023-01-17T13:26:47.635Z,60.10
2023-01-17T13:32:06.055Z,60.44
2023-01-17T13:37:41.928Z,59.72
2023-01-17T13:43:05.358Z,59.40
2023-01-17T13:48:14.582Z,58.96
2023-01-17T13:53:34.545Z,57.93
2023-01-17T13:59:02.800Z,58.39
2023-01-17T14:04:07.490Z,59.29
2023-01-17T14:09:21.447Z,60.37
2023-01-17T14:14:44.342Z,61.03
2023-01-17T14:19:49.683Z,61.51
2023-01-17T14:25:17.297Z,61.49
2023-01-17T14:30:25.668Z,61.20
2023-01-17T14:35:36.817Z,61.61
2023-01-17T14:40:38.722Z,62.32
2023-01-17T14:45:42.168Z,62.96
2023-01-17T14:50:46.215Z,63.65
2023-01-17T14:55:47.885Z,63.80
2023-01-17T15:00:58.277Z,63.88
2023-01-17T15:06:11.514Z,64.04
2023-01-17T15:11:19.841Z,64.28
2023-01-17T15:16:28.123Z,64.48
2023-01-17T15:21:35.463Z,64.83
2023-01-17T15:26:43.091Z,65.00
2023-01-17T15:31:48.677Z,65.46
2023-01-17T15:36:51.272Z,66.08
2023-01-17T15:41:55.069Z,66.55
2023-01-17T15:46:56.714Z,66.71
2023-01-17T15:52:10.518Z,67.53
2023-01-17T15:57:32.692Z,67.27
2023-01-17T16:02:55.416Z,67.66
2023-01-17T16:08:01.622Z,68.14
2023-01-17T16:13:05.670Z,68.23
2023-01-17T16:18:25.890Z,68.68
2023-01-17T16:23:28.476Z,69.42
2023-01-17T16:28:30.131Z,69.32
2023-01-17T16:33:31.850Z,69.81
2023-01-17T16:38:33.588Z,69.68
2023-01-17T16:43:35.329Z,69.77
2023-01-17T16:48:37.503Z,69.64
2023-01-17T16:53:39.160Z,70.17
2023-01-17T16:58:41.557Z,70.09
2023-01-17T17:03:44.693Z,69.95
2023-01-17T17:08:47.479Z,70.27
2023-01-17T17:13:50.718Z,70.13
2023-01-17T17:19:01.248Z,69.98
2023-01-17T17:24:03.628Z,69.72
2023-01-17T17:29:07.247Z,69.87
2023-01-17T17:34:11.534Z,69.93
2023-01-17T17:39:17.371Z,70.11
2023-01-17T17:44:19.105Z,70.11
2023-01-17T17:49:22.687Z,70.21
2023-01-17T17:54:24.750Z,70.24
2023-01-17T17:59:26.996Z,69.98
2023-01-17T18:04:28.830Z,70.13
2023-01-17T18:09:30.659Z,70.12
2023-01-17T18:14:32.673Z,70.28
2023-01-17T18:19:34.526Z,70.17
2023-01-17T18:24:36.340Z,70.15
2023-01-17T18:29:38.048Z,70.34
2023-01-17T18:34:41.450Z,70.58
2023-01-17T18:39:43.789Z,70.91
2023-01-17T18:44:45.694Z,70.74
2023-01-17T18:49:47.473Z,71.21
2023-01-17T18:54:49.147Z,71.87
2023-01-17T18:59:50.975Z,71.92
2023-01-17T19:04:52.810Z,72.19
2023-01-17T19:09:54.585Z,72.71
2023-01-17T19:14:56.474Z,73.11
2023-01-17T19:19:58.586Z,73.16
2023-01-17T19:25:00.206Z,73.42
2023-01-17T19:30:01.907Z,73.36
2023-01-17T19:35:03.728Z,72.73
2023-01-17T19:40:08.171Z,72.73
2023-01-17T19:45:11.868Z,73.18
2023-01-17T19:50:14.863Z,73.33
2023-01-17T19:55:17.694Z,73.64
2023-01-17T20:00:22.928Z,74.26
2023-01-17T20:05:27.434Z,73.95
2023-01-17T20:10:29.676Z,74.07
2023-01-17T20:15:31.647Z,73.74
2023-01-17T20:20:34.647Z,73.91
2023-01-17T20:25:36.506Z,74.03
2023-01-17T20:30:38.140Z,74.12
2023-01-17T20:35:41.028Z,74.42
2023-01-17T20:40:42.884Z,74.17
2023-01-17T20:45:44.671Z,74.67
2023-01-17T20:50:46.501Z,75.00
2023-01-17T20:55:55.559Z,75.60
2023-01-17T21:00:58.596Z,75.84
2023-01-17T21:06:02.344Z,75.86
2023-01-17T21:11:05.327Z,76.01
2023-01-17T21:16:09.216Z,75.86
2023-01-17T21:21:14.044Z,76.05
2023-01-17T21:26:17.622Z,76.26
2023-01-17T21:31:24.114Z,76.35
2023-01-17T21:36:28.834Z,76.50
2023-01-17T21:41:33.873Z,76.27
2023-01-17T21:46:41.024Z,76.07
2023-01-17T21:51:52.472Z,76.31
2023-01-17T21:57:12.852Z,76.33
2023-01-17T22:02:14.738Z,76.27
2023-01-17T22:07:16.698Z,76.34
2023-01-17T22:12:24.407Z,76.15
2023-01-17T22:17:26.267Z,76.15
2023-01-17T22:22:32.555Z,75.83
2023-01-17T22:27:34.394Z,76.27
2023-01-17T22:32:39.397Z,76.12
2023-01-17T22:37:41.405Z,75.99
2023-01-17T22:42:43.940Z,76.38
2023-01-17T22:47:45.710Z,76.28
2023-01-17T22:52:47.384Z,76.17
2023-01-17T22:57:49.132Z,76.57
2023-01-17T23:02:51.002Z,76.58
2023-01-17T23:07:53.512Z,76.79
2023-01-17T23:12:55.638Z,76.57
2023-01-17T23:18:16.453Z,76.24
2023-01-17T23:23:18.107Z,76.53
2023-01-17T23:28:20.714Z,76.31
2023-01-17T23:33:22.458Z,76.53
2023-01-17T23:38:28.701Z,76.09
2023-01-17T23:43:31.983Z,76.31
2023-01-17T23:48:33.745Z,75.86
2023-01-17T23:53:37.368Z,75.56
2023-01-17T23:58:39.285Z,75.44
